sensor_id;sensor_type;location;lat;lon;timestamp;P1;durP1;ratioP1;P2;durP2;ratioP2
19940;SDS011;10132;50.864;5.176;2023-08-06T00:01:27;8.07;;;1.20;;
19940;SDS011;10132;50.864;5.176;2023-08-06T00:03:30;3.67;;;1.40;;
19940;SDS011;10132;50.864;5.176;2023-08-06T00:05:35;3.43;;;1.40;;
19940;SDS011;10132;50.864;5.176;2023-08-06T00:07:39;2.57;;;1.20;;
19940;SDS011;10132;50.864;5.176;2023-08-06T00:09:41;2.43;;;1.43;;
19940;SDS011;10132;50.864;5.176;2023-08-06T00:11:44;4.57;;;1.43;;
19940;SDS011;10132;50.864;5.176;2023-08-06T00:13:47;4.33;;;1.53;;
19940;SDS011;10132;50.864;5.176;2023-08-06T00:15:54;2.47;;;1.20;;
19940;SDS011;10132;50.864;5.176;2023-08-06T00:18:11;5.17;;;1.30;;
19940;SDS011;10132;50.864;5.176;2023-08-06T00:20:16;3.77;;;1.40;;
19940;SDS011;10132;50.864;5.176;2023-08-06T00:22:23;1.83;;;1.30;;
19940;SDS011;10132;50.864;5.176;2023-08-06T00:24:26;2.30;;;0.93;;
19940;SDS011;10132;50.864;5.176;2023-08-06T00:26:29;3.07;;;1.40;;
19940;SDS011;10132;50.864;5.176;2023-08-06T00:28:32;3.37;;;1.30;;
19940;SDS011;10132;50.864;5.176;2023-08-06T00:30:35;2.77;;;1.10;;
19940;SDS011;10132;50.864;5.176;2023-08-06T00:32:39;4.20;;;1.40;;
19940;SDS011;10132;50.864;5.176;2023-08-06T00:34:43;2.47;;;1.10;;
19940;SDS011;10132;50.864;5.176;2023-08-06T00:36:55;4.77;;;1.33;;
19940;SDS011;10132;50.864;5.176;2023-08-06T00:38:59;1.70;;;1.20;;
19940;SDS011;10132;50.864;5.176;2023-08-06T00:41:02;3.87;;;1.20;;
19940;SDS011;10132;50.864;5.176;2023-08-06T00:43:15;3.97;;;1.30;;
19940;SDS011;10132;50.864;5.176;2023-08-06T00:45:45;3.87;;;1.60;;
19940;SDS011;10132;50.864;5.176;2023-08-06T00:47:50;3.43;;;1.50;;
19940;SDS011;10132;50.864;5.176;2023-08-06T00:50:08;3.17;;;1.40;;
19940;SDS011;10132;50.864;5.176;2023-08-06T00:52:18;3.07;;;1.53;;
19940;SDS011;10132;50.864;5.176;2023-08-06T00:54:29;2.33;;;1.13;;
19940;SDS011;10132;50.864;5.176;2023-08-06T00:56:33;4.80;;;1.20;;
19940;SDS011;10132;50.864;5.176;2023-08-06T00:58:44;2.63;;;1.20;;
19940;SDS011;10132;50.864;5.176;2023-08-06T01:00:51;3.67;;;1.13;;
19940;SDS011;10132;50.864;5.176;2023-08-06T01:03:02;2.73;;;0.90;;
19940;SDS011;10132;50.864;5.176;2023-08-06T01:05:04;1.80;;;0.97;;
19940;SDS011;10132;50.864;5.176;2023-08-06T01:07:19;2.13;;;0.77;;
19940;SDS011;10132;50.864;5.176;2023-08-06T01:09:45;2.43;;;0.90;;
19940;SDS011;10132;50.864;5.176;2023-08-06T01:11:59;4.87;;;1.40;;
19940;SDS011;10132;50.864;5.176;2023-08-06T01:14:23;2.90;;;0.80;;
19940;SDS011;10132;50.864;5.176;2023-08-06T01:16:32;2.43;;;0.90;;
19940;SDS011;10132;50.864;5.176;2023-08-06T01:18:46;1.33;;;0.77;;
19940;SDS011;10132;50.864;5.176;2023-08-06T01:21:05;2.90;;;0.80;;
19940;SDS011;10132;50.864;5.176;2023-08-06T01:23:10;1.73;;;0.77;;
19940;SDS011;10132;50.864;5.176;2023-08-06T01:25:14;2.40;;;0.90;;
19940;SDS011;10132;50.864;5.176;2023-08-06T01:27:30;4.43;;;1.00;;
19940;SDS011;10132;50.864;5.176;2023-08-06T01:29:43;2.20;;;0.93;;
19940;SDS011;10132;50.864;5.176;2023-08-06T01:31:50;2.60;;;0.80;;
19940;SDS011;10132;50.864;5.176;2023-08-06T01:33:54;2.90;;;0.97;;
19940;SDS011;10132;50.864;5.176;2023-08-06T01:35:59;5.00;;;0.73;;
19940;SDS011;10132;50.864;5.176;2023-08-06T01:38:13;2.70;;;0.97;;
19940;SDS011;10132;50.864;5.176;2023-08-06T01:40:20;3.23;;;1.00;;
19940;SDS011;10132;50.864;5.176;2023-08-06T01:42:22;1.33;;;0.70;;
19940;SDS011;10132;50.864;5.176;2023-08-06T01:44:27;3.60;;;0.90;;
19940;SDS011;10132;50.864;5.176;2023-08-06T01:46:30;3.13;;;0.80;;
19940;SDS011;10132;50.864;5.176;2023-08-06T01:48:35;1.50;;;0.87;;
19940;SDS011;10132;50.864;5.176;2023-08-06T01:50:42;2.47;;;0.80;;
19940;SDS011;10132;50.864;5.176;2023-08-06T01:52:44;1.10;;;0.80;;
19940;SDS011;10132;50.864;5.176;2023-08-06T01:54:48;1.87;;;0.80;;
19940;SDS011;10132;50.864;5.176;2023-08-06T01:56:56;1.97;;;0.70;;
19940;SDS011;10132;50.864;5.176;2023-08-06T01:59:00;3.30;;;0.97;;
19940;SDS011;10132;50.864;5.176;2023-08-06T02:01:04;2.60;;;0.93;;
19940;SDS011;10132;50.864;5.176;2023-08-06T02:03:07;1.60;;;0.83;;
19940;SDS011;10132;50.864;5.176;2023-08-06T02:05:15;2.33;;;0.80;;
19940;SDS011;10132;50.864;5.176;2023-08-06T02:07:23;1.30;;;0.73;;
19940;SDS011;10132;50.864;5.176;2023-08-06T02:09:25;2.43;;;1.00;;
19940;SDS011;10132;50.864;5.176;2023-08-06T02:11:31;1.83;;;0.90;;
19940;SDS011;10132;50.864;5.176;2023-08-06T02:13:34;2.03;;;0.90;;
19940;SDS011;10132;50.864;5.176;2023-08-06T02:15:41;3.30;;;0.90;;
19940;SDS011;10132;50.864;5.176;2023-08-06T02:17:48;1.40;;;0.70;;
19940;SDS011;10132;50.864;5.176;2023-08-06T02:19:59;3.03;;;1.10;;
19940;SDS011;10132;50.864;5.176;2023-08-06T02:22:02;1.00;;;0.90;;
19940;SDS011;10132;50.864;5.176;2023-08-06T02:24:04;1.70;;;1.00;;
19940;SDS011;10132;50.864;5.176;2023-08-06T02:26:08;1.80;;;1.17;;
19940;SDS011;10132;50.864;5.176;2023-08-06T02:28:13;3.27;;;1.30;;
19940;SDS011;10132;50.864;5.176;2023-08-06T02:30:15;4.47;;;1.13;;
19940;SDS011;10132;50.864;5.176;2023-08-06T02:32:19;3.63;;;1.30;;
19940;SDS011;10132;50.864;5.176;2023-08-06T02:34:28;2.23;;;1.30;;
19940;SDS011;10132;50.864;5.176;2023-08-06T02:36:31;2.90;;;1.33;;
19940;SDS011;10132;50.864;5.176;2023-08-06T02:38:34;3.80;;;1.43;;
19940;SDS011;10132;50.864;5.176;2023-08-06T02:40:37;3.57;;;1.40;;
19940;SDS011;10132;50.864;5.176;2023-08-06T02:42:46;2.63;;;1.30;;
19940;SDS011;10132;50.864;5.176;2023-08-06T02:44:51;1.67;;;1.37;;
19940;SDS011;10132;50.864;5.176;2023-08-06T02:46:55;2.03;;;1.40;;
19940;SDS011;10132;50.864;5.176;2023-08-06T02:48:58;4.60;;;1.60;;
19940;SDS011;10132;50.864;5.176;2023-08-06T02:51:03;2.93;;;1.50;;
19940;SDS011;10132;50.864;5.176;2023-08-06T02:53:11;2.87;;;1.67;;
19940;SDS011;10132;50.864;5.176;2023-08-06T02:55:13;3.67;;;1.67;;
19940;SDS011;10132;50.864;5.176;2023-08-06T02:57:17;4.20;;;1.67;;
19940;SDS011;10132;50.864;5.176;2023-08-06T02:59:23;4.40;;;1.90;;
19940;SDS011;10132;50.864;5.176;2023-08-06T03:01:28;2.80;;;2.03;;
19940;SDS011;10132;50.864;5.176;2023-08-06T03:03:36;5.50;;;2.30;;
19940;SDS011;10132;50.864;5.176;2023-08-06T03:05:39;4.47;;;2.40;;
19940;SDS011;10132;50.864;5.176;2023-08-06T03:07:49;5.30;;;2.93;;
19940;SDS011;10132;50.864;5.176;2023-08-06T03:09:53;3.07;;;2.77;;
19940;SDS011;10132;50.864;5.176;2023-08-06T03:12:01;6.10;;;3.30;;
19940;SDS011;10132;50.864;5.176;2023-08-06T03:14:08;4.77;;;3.20;;
19940;SDS011;10132;50.864;5.176;2023-08-06T03:16:20;5.33;;;3.70;;
19940;SDS011;10132;50.864;5.176;2023-08-06T03:18:25;5.83;;;3.80;;
19940;SDS011;10132;50.864;5.176;2023-08-06T03:20:26;5.77;;;3.87;;
19940;SDS011;10132;50.864;5.176;2023-08-06T03:22:29;6.30;;;3.90;;
19940;SDS011;10132;50.864;5.176;2023-08-06T03:24:31;5.73;;;4.00;;
19940;SDS011;10132;50.864;5.176;2023-08-06T03:26:35;10.03;;;4.20;;
19940;SDS011;10132;50.864;5.176;2023-08-06T03:28:38;6.60;;;4.30;;
19940;SDS011;10132;50.864;5.176;2023-08-06T03:30:42;7.33;;;4.80;;
19940;SDS011;10132;50.864;5.176;2023-08-06T03:32:47;5.27;;;4.03;;
19940;SDS011;10132;50.864;5.176;2023-08-06T03:34:52;9.50;;;4.90;;
19940;SDS011;10132;50.864;5.176;2023-08-06T03:36:58;7.07;;;4.97;;
19940;SDS011;10132;50.864;5.176;2023-08-06T03:39:08;8.17;;;5.53;;
19940;SDS011;10132;50.864;5.176;2023-08-06T03:41:13;8.77;;;5.10;;
19940;SDS011;10132;50.864;5.176;2023-08-06T03:43:16;8.60;;;5.40;;
19940;SDS011;10132;50.864;5.176;2023-08-06T03:45:27;7.77;;;5.40;;
19940;SDS011;10132;50.864;5.176;2023-08-06T03:47:32;8.60;;;5.77;;
19940;SDS011;10132;50.864;5.176;2023-08-06T03:49:43;9.00;;;5.57;;
19940;SDS011;10132;50.864;5.176;2023-08-06T03:51:51;8.07;;;5.57;;
19940;SDS011;10132;50.864;5.176;2023-08-06T03:53:55;6.50;;;5.23;;
19940;SDS011;10132;50.864;5.176;2023-08-06T03:55:56;7.27;;;5.87;;
19940;SDS011;10132;50.864;5.176;2023-08-06T03:58:03;6.53;;;5.33;;
19940;SDS011;10132;50.864;5.176;2023-08-06T04:00:05;7.33;;;5.23;;
19940;SDS011;10132;50.864;5.176;2023-08-06T04:02:12;8.27;;;5.93;;
19940;SDS011;10132;50.864;5.176;2023-08-06T04:04:16;8.73;;;5.50;;
19940;SDS011;10132;50.864;5.176;2023-08-06T04:06:22;10.63;;;6.20;;
19940;SDS011;10132;50.864;5.176;2023-08-06T04:08:32;7.20;;;5.60;;
19940;SDS011;10132;50.864;5.176;2023-08-06T04:10:41;10.23;;;5.60;;
19940;SDS011;10132;50.864;5.176;2023-08-06T04:12:48;7.73;;;5.27;;
19940;SDS011;10132;50.864;5.176;2023-08-06T04:14:51;9.47;;;6.00;;
19940;SDS011;10132;50.864;5.176;2023-08-06T04:16:55;8.67;;;5.50;;
19940;SDS011;10132;50.864;5.176;2023-08-06T04:19:03;7.20;;;5.30;;
19940;SDS011;10132;50.864;5.176;2023-08-06T04:21:06;7.63;;;5.43;;
19940;SDS011;10132;50.864;5.176;2023-08-06T04:23:08;6.07;;;5.23;;
19940;SDS011;10132;50.864;5.176;2023-08-06T04:25:14;8.60;;;6.03;;
19940;SDS011;10132;50.864;5.176;2023-08-06T04:27:28;10.00;;;5.70;;
19940;SDS011;10132;50.864;5.176;2023-08-06T04:29:32;7.17;;;5.63;;
19940;SDS011;10132;50.864;5.176;2023-08-06T04:31:42;6.00;;;5.40;;
19940;SDS011;10132;50.864;5.176;2023-08-06T04:33:45;9.00;;;5.83;;
19940;SDS011;10132;50.864;5.176;2023-08-06T04:35:53;6.90;;;5.30;;
19940;SDS011;10132;50.864;5.176;2023-08-06T04:37:57;10.43;;;5.70;;
19940;SDS011;10132;50.864;5.176;2023-08-06T04:40:01;9.30;;;5.40;;
19940;SDS011;10132;50.864;5.176;2023-08-06T04:42:09;8.33;;;5.87;;
19940;SDS011;10132;50.864;5.176;2023-08-06T04:44:14;6.23;;;5.60;;
19940;SDS011;10132;50.864;5.176;2023-08-06T04:46:20;5.97;;;4.90;;
19940;SDS011;10132;50.864;5.176;2023-08-06T04:48:32;9.17;;;5.13;;
19940;SDS011;10132;50.864;5.176;2023-08-06T04:50:35;5.93;;;5.20;;
19940;SDS011;10132;50.864;5.176;2023-08-06T04:52:45;8.50;;;5.60;;
19940;SDS011;10132;50.864;5.176;2023-08-06T04:54:50;9.20;;;4.87;;
19940;SDS011;10132;50.864;5.176;2023-08-06T04:57:00;6.10;;;5.03;;
19940;SDS011;10132;50.864;5.176;2023-08-06T04:59:03;12.03;;;4.93;;
19940;SDS011;10132;50.864;5.176;2023-08-06T05:01:07;6.73;;;4.67;;
19940;SDS011;10132;50.864;5.176;2023-08-06T05:03:09;6.90;;;5.37;;
19940;SDS011;10132;50.864;5.176;2023-08-06T05:05:14;8.57;;;5.90;;
19940;SDS011;10132;50.864;5.176;2023-08-06T05:07:17;8.20;;;5.67;;
19940;SDS011;10132;50.864;5.176;2023-08-06T05:09:27;9.43;;;6.33;;
19940;SDS011;10132;50.864;5.176;2023-08-06T05:11:32;6.90;;;5.60;;
19940;SDS011;10132;50.864;5.176;2023-08-06T05:13:35;7.90;;;6.10;;
19940;SDS011;10132;50.864;5.176;2023-08-06T05:15:51;8.67;;;5.60;;
19940;SDS011;10132;50.864;5.176;2023-08-06T05:18:01;8.13;;;5.93;;
19940;SDS011;10132;50.864;5.176;2023-08-06T05:20:04;8.93;;;5.73;;
19940;SDS011;10132;50.864;5.176;2023-08-06T05:22:12;8.53;;;5.70;;
19940;SDS011;10132;50.864;5.176;2023-08-06T05:24:17;8.00;;;5.40;;
19940;SDS011;10132;50.864;5.176;2023-08-06T05:26:22;9.33;;;5.30;;
19940;SDS011;10132;50.864;5.176;2023-08-06T05:28:25;5.57;;;4.70;;
19940;SDS011;10132;50.864;5.176;2023-08-06T05:30:27;9.20;;;4.70;;
19940;SDS011;10132;50.864;5.176;2023-08-06T05:32:32;7.63;;;4.67;;
19940;SDS011;10132;50.864;5.176;2023-08-06T05:34:34;5.87;;;4.33;;
19940;SDS011;10132;50.864;5.176;2023-08-06T05:36:39;5.47;;;4.30;;
19940;SDS011;10132;50.864;5.176;2023-08-06T05:38:41;3.50;;;3.00;;
19940;SDS011;10132;50.864;5.176;2023-08-06T05:40:44;2.47;;;1.97;;
19940;SDS011;10132;50.864;5.176;2023-08-06T05:42:46;2.87;;;1.70;;
19940;SDS011;10132;50.864;5.176;2023-08-06T05:44:49;1.67;;;1.37;;
19940;SDS011;10132;50.864;5.176;2023-08-06T05:46:50;3.00;;;1.60;;
19940;SDS011;10132;50.864;5.176;2023-08-06T05:48:55;1.43;;;1.33;;
19940;SDS011;10132;50.864;5.176;2023-08-06T05:50:58;2.90;;;1.37;;
19940;SDS011;10132;50.864;5.176;2023-08-06T05:53:01;3.67;;;1.67;;
19940;SDS011;10132;50.864;5.176;2023-08-06T05:55:04;1.60;;;1.50;;
19940;SDS011;10132;50.864;5.176;2023-08-06T05:57:07;1.87;;;1.13;;
19940;SDS011;10132;50.864;5.176;2023-08-06T05:59:10;1.10;;;1.00;;
19940;SDS011;10132;50.864;5.176;2023-08-06T06:01:12;1.57;;;1.20;;
19940;SDS011;10132;50.864;5.176;2023-08-06T06:03:18;1.50;;;1.40;;
19940;SDS011;10132;50.864;5.176;2023-08-06T06:05:21;1.60;;;1.50;;
19940;SDS011;10132;50.864;5.176;2023-08-06T06:07:24;2.33;;;1.90;;
19940;SDS011;10132;50.864;5.176;2023-08-06T06:09:27;4.93;;;2.50;;
19940;SDS011;10132;50.864;5.176;2023-08-06T06:11:30;4.70;;;2.30;;
19940;SDS011;10132;50.864;5.176;2023-08-06T06:13:34;3.53;;;2.60;;
19940;SDS011;10132;50.864;5.176;2023-08-06T06:15:36;5.27;;;2.97;;
19940;SDS011;10132;50.864;5.176;2023-08-06T06:17:40;5.17;;;2.90;;
19940;SDS011;10132;50.864;5.176;2023-08-06T06:19:43;5.63;;;3.03;;
19940;SDS011;10132;50.864;5.176;2023-08-06T06:21:47;4.67;;;3.30;;
19940;SDS011;10132;50.864;5.176;2023-08-06T06:23:50;5.57;;;3.77;;
19940;SDS011;10132;50.864;5.176;2023-08-06T06:25:53;4.70;;;3.70;;
19940;SDS011;10132;50.864;5.176;2023-08-06T06:27:56;4.47;;;4.03;;
19940;SDS011;10132;50.864;5.176;2023-08-06T06:29:59;7.37;;;4.30;;
19940;SDS011;10132;50.864;5.176;2023-08-06T06:32:02;5.07;;;3.83;;
19940;SDS011;10132;50.864;5.176;2023-08-06T06:34:05;6.50;;;3.90;;
19940;SDS011;10132;50.864;5.176;2023-08-06T06:36:07;7.80;;;4.40;;
19940;SDS011;10132;50.864;5.176;2023-08-06T06:38:11;7.23;;;4.70;;
19940;SDS011;10132;50.864;5.176;2023-08-06T06:40:14;5.50;;;3.57;;
19940;SDS011;10132;50.864;5.176;2023-08-06T06:42:17;4.60;;;3.83;;
19940;SDS011;10132;50.864;5.176;2023-08-06T06:44:19;5.90;;;3.33;;
19940;SDS011;10132;50.864;5.176;2023-08-06T06:46:22;4.13;;;3.00;;
19940;SDS011;10132;50.864;5.176;2023-08-06T06:48:25;3.80;;;2.93;;
19940;SDS011;10132;50.864;5.176;2023-08-06T06:50:28;4.40;;;2.73;;
19940;SDS011;10132;50.864;5.176;2023-08-06T06:52:32;6.47;;;3.17;;
19940;SDS011;10132;50.864;5.176;2023-08-06T06:54:36;4.17;;;2.43;;
19940;SDS011;10132;50.864;5.176;2023-08-06T06:56:41;5.27;;;2.67;;
19940;SDS011;10132;50.864;5.176;2023-08-06T06:58:44;3.70;;;2.20;;
19940;SDS011;10132;50.864;5.176;2023-08-06T07:00:46;4.03;;;2.37;;
19940;SDS011;10132;50.864;5.176;2023-08-06T07:02:49;4.50;;;2.50;;
19940;SDS011;10132;50.864;5.176;2023-08-06T07:04:53;4.50;;;2.27;;
19940;SDS011;10132;50.864;5.176;2023-08-06T07:06:55;7.90;;;2.53;;
19940;SDS011;10132;50.864;5.176;2023-08-06T07:08:58;3.23;;;2.03;;
19940;SDS011;10132;50.864;5.176;2023-08-06T07:11:03;4.53;;;2.30;;
19940;SDS011;10132;50.864;5.176;2023-08-06T07:13:06;6.90;;;2.30;;
19940;SDS011;10132;50.864;5.176;2023-08-06T07:15:09;4.27;;;2.30;;
19940;SDS011;10132;50.864;5.176;2023-08-06T07:17:12;5.57;;;2.27;;
19940;SDS011;10132;50.864;5.176;2023-08-06T07:19:17;3.10;;;1.93;;
19940;SDS011;10132;50.864;5.176;2023-08-06T07:21:19;9.90;;;2.50;;
19940;SDS011;10132;50.864;5.176;2023-08-06T07:23:22;3.27;;;1.90;;
19940;SDS011;10132;50.864;5.176;2023-08-06T07:25:26;5.73;;;2.20;;
19940;SDS011;10132;50.864;5.176;2023-08-06T07:27:31;3.70;;;2.00;;
19940;SDS011;10132;50.864;5.176;2023-08-06T07:29:35;3.53;;;2.00;;
19940;SDS011;10132;50.864;5.176;2023-08-06T07:31:37;4.00;;;2.40;;
19940;SDS011;10132;50.864;5.176;2023-08-06T07:33:41;6.80;;;1.97;;
19940;SDS011;10132;50.864;5.176;2023-08-06T07:35:44;5.27;;;2.40;;
19940;SDS011;10132;50.864;5.176;2023-08-06T07:37:47;6.63;;;2.27;;
19940;SDS011;10132;50.864;5.176;2023-08-06T07:39:49;4.20;;;2.30;;
19940;SDS011;10132;50.864;5.176;2023-08-06T07:41:52;4.10;;;2.07;;
19940;SDS011;10132;50.864;5.176;2023-08-06T07:43:57;7.17;;;2.57;;
19940;SDS011;10132;50.864;5.176;2023-08-06T07:45:59;6.43;;;2.00;;
19940;SDS011;10132;50.864;5.176;2023-08-06T07:48:03;5.90;;;2.40;;
19940;SDS011;10132;50.864;5.176;2023-08-06T07:50:05;6.87;;;3.10;;
19940;SDS011;10132;50.864;5.176;2023-08-06T07:52:08;7.30;;;3.20;;
19940;SDS011;10132;50.864;5.176;2023-08-06T07:54:13;6.10;;;2.53;;
19940;SDS011;10132;50.864;5.176;2023-08-06T07:56:16;8.20;;;3.30;;
19940;SDS011;10132;50.864;5.176;2023-08-06T07:58:20;8.70;;;3.20;;
19940;SDS011;10132;50.864;5.176;2023-08-06T08:00:27;5.77;;;3.33;;
19940;SDS011;10132;50.864;5.176;2023-08-06T08:02:30;4.83;;;2.47;;
19940;SDS011;10132;50.864;5.176;2023-08-06T08:04:33;5.33;;;2.93;;
19940;SDS011;10132;50.864;5.176;2023-08-06T08:06:37;4.67;;;2.53;;
19940;SDS011;10132;50.864;5.176;2023-08-06T08:08:39;5.23;;;2.53;;
19940;SDS011;10132;50.864;5.176;2023-08-06T08:10:43;5.80;;;2.43;;
19940;SDS011;10132;50.864;5.176;2023-08-06T08:12:46;6.13;;;2.43;;
19940;SDS011;10132;50.864;5.176;2023-08-06T08:14:48;6.63;;;2.90;;
19940;SDS011;10132;50.864;5.176;2023-08-06T08:16:53;5.23;;;2.40;;
19940;SDS011;10132;50.864;5.176;2023-08-06T08:18:55;5.80;;;2.50;;
19940;SDS011;10132;50.864;5.176;2023-08-06T08:20:58;6.77;;;1.97;;
19940;SDS011;10132;50.864;5.176;2023-08-06T08:23:01;4.03;;;1.90;;
19940;SDS011;10132;50.864;5.176;2023-08-06T08:25:04;6.93;;;2.80;;
19940;SDS011;10132;50.864;5.176;2023-08-06T08:27:07;7.60;;;2.23;;
19940;SDS011;10132;50.864;5.176;2023-08-06T08:29:10;6.80;;;2.00;;
19940;SDS011;10132;50.864;5.176;2023-08-06T08:31:13;6.03;;;2.10;;
19940;SDS011;10132;50.864;5.176;2023-08-06T08:33:18;8.63;;;1.90;;
19940;SDS011;10132;50.864;5.176;2023-08-06T08:35:21;4.73;;;1.80;;
19940;SDS011;10132;50.864;5.176;2023-08-06T08:37:25;5.43;;;1.90;;
19940;SDS011;10132;50.864;5.176;2023-08-06T08:39:27;8.23;;;1.70;;
19940;SDS011;10132;50.864;5.176;2023-08-06T08:41:30;5.70;;;1.60;;
19940;SDS011;10132;50.864;5.176;2023-08-06T08:43:35;10.27;;;1.83;;
19940;SDS011;10132;50.864;5.176;2023-08-06T08:45:39;13.07;;;3.03;;
19940;SDS011;10132;50.864;5.176;2023-08-06T08:47:43;8.43;;;2.20;;
19940;SDS011;10132;50.864;5.176;2023-08-06T08:49:48;4.50;;;1.40;;
19940;SDS011;10132;50.864;5.176;2023-08-06T08:51:55;4.97;;;1.50;;
19940;SDS011;10132;50.864;5.176;2023-08-06T08:54:00;9.67;;;1.73;;
19940;SDS011;10132;50.864;5.176;2023-08-06T08:56:05;5.60;;;1.37;;
19940;SDS011;10132;50.864;5.176;2023-08-06T08:58:08;7.50;;;1.60;;
19940;SDS011;10132;50.864;5.176;2023-08-06T09:00:11;6.93;;;1.57;;
19940;SDS011;10132;50.864;5.176;2023-08-06T09:02:14;4.37;;;1.40;;
19940;SDS011;10132;50.864;5.176;2023-08-06T09:04:17;9.53;;;1.63;;
19940;SDS011;10132;50.864;5.176;2023-08-06T09:06:22;8.40;;;1.60;;
19940;SDS011;10132;50.864;5.176;2023-08-06T09:08:30;5.23;;;1.40;;
19940;SDS011;10132;50.864;5.176;2023-08-06T09:10:40;7.33;;;1.50;;
19940;SDS011;10132;50.864;5.176;2023-08-06T09:12:44;8.00;;;1.70;;
19940;SDS011;10132;50.864;5.176;2023-08-06T09:14:50;9.87;;;1.80;;
19940;SDS011;10132;50.864;5.176;2023-08-06T09:16:53;5.37;;;1.30;;
19940;SDS011;10132;50.864;5.176;2023-08-06T09:18:56;7.53;;;1.57;;
19940;SDS011;10132;50.864;5.176;2023-08-06T09:21:13;9.97;;;1.27;;
19940;SDS011;10132;50.864;5.176;2023-08-06T09:23:18;7.37;;;1.30;;
19940;SDS011;10132;50.864;5.176;2023-08-06T09:25:22;4.37;;;1.27;;
19940;SDS011;10132;50.864;5.176;2023-08-06T09:27:28;6.03;;;1.43;;
19940;SDS011;10132;50.864;5.176;2023-08-06T09:29:31;5.27;;;1.20;;
19940;SDS011;10132;50.864;5.176;2023-08-06T09:31:35;4.97;;;0.90;;
19940;SDS011;10132;50.864;5.176;2023-08-06T09:33:42;10.57;;;2.10;;
19940;SDS011;10132;50.864;5.176;2023-08-06T09:35:48;4.47;;;1.30;;
19940;SDS011;10132;50.864;5.176;2023-08-06T09:37:51;5.40;;;1.10;;
19940;SDS011;10132;50.864;5.176;2023-08-06T09:39:55;5.70;;;1.20;;
19940;SDS011;10132;50.864;5.176;2023-08-06T09:41:59;6.10;;;1.50;;
19940;SDS011;10132;50.864;5.176;2023-08-06T09:44:04;6.27;;;1.80;;
19940;SDS011;10132;50.864;5.176;2023-08-06T09:46:10;4.27;;;1.53;;
19940;SDS011;10132;50.864;5.176;2023-08-06T09:48:16;4.63;;;1.60;;
19940;SDS011;10132;50.864;5.176;2023-08-06T09:50:27;5.40;;;1.80;;
19940;SDS011;10132;50.864;5.176;2023-08-06T09:52:30;5.83;;;1.50;;
19940;SDS011;10132;50.864;5.176;2023-08-06T09:54:36;4.90;;;1.80;;
19940;SDS011;10132;50.864;5.176;2023-08-06T09:56:42;6.13;;;1.77;;
19940;SDS011;10132;50.864;5.176;2023-08-06T09:58:49;8.97;;;1.70;;
19940;SDS011;10132;50.864;5.176;2023-08-06T10:00:52;3.53;;;1.50;;
19940;SDS011;10132;50.864;5.176;2023-08-06T10:02:55;6.27;;;1.80;;
19940;SDS011;10132;50.864;5.176;2023-08-06T10:05:03;3.30;;;1.90;;
19940;SDS011;10132;50.864;5.176;2023-08-06T10:07:05;4.83;;;1.60;;
19940;SDS011;10132;50.864;5.176;2023-08-06T10:09:12;3.30;;;1.30;;
19940;SDS011;10132;50.864;5.176;2023-08-06T10:11:15;3.93;;;1.30;;
19940;SDS011;10132;50.864;5.176;2023-08-06T10:13:24;6.43;;;1.97;;
19940;SDS011;10132;50.864;5.176;2023-08-06T10:15:27;2.63;;;1.20;;
19940;SDS011;10132;50.864;5.176;2023-08-06T10:17:31;3.87;;;1.60;;
19940;SDS011;10132;50.864;5.176;2023-08-06T10:19:36;5.57;;;1.57;;
19940;SDS011;10132;50.864;5.176;2023-08-06T10:21:39;3.63;;;1.20;;
19940;SDS011;10132;50.864;5.176;2023-08-06T10:23:42;4.57;;;1.20;;
19940;SDS011;10132;50.864;5.176;2023-08-06T10:25:45;6.17;;;1.60;;
19940;SDS011;10132;50.864;5.176;2023-08-06T10:27:57;5.87;;;1.63;;
19940;SDS011;10132;50.864;5.176;2023-08-06T10:34:55;2.30;;;1.00;;
19940;SDS011;10132;50.864;5.176;2023-08-06T10:36:57;2.83;;;0.80;;
19940;SDS011;10132;50.864;5.176;2023-08-06T10:39:00;4.03;;;1.20;;
19940;SDS011;10132;50.864;5.176;2023-08-06T10:41:04;2.10;;;0.90;;
19940;SDS011;10132;50.864;5.176;2023-08-06T10:43:06;2.17;;;1.33;;
19940;SDS011;10132;50.864;5.176;2023-08-06T10:45:16;2.87;;;1.17;;
19940;SDS011;10132;50.864;5.176;2023-08-06T10:47:28;1.23;;;1.00;;
19940;SDS011;10132;50.864;5.176;2023-08-06T10:49:35;2.67;;;1.03;;
19940;SDS011;10132;50.864;5.176;2023-08-06T10:51:37;3.27;;;1.10;;
19940;SDS011;10132;50.864;5.176;2023-08-06T10:53:41;2.07;;;0.97;;
19940;SDS011;10132;50.864;5.176;2023-08-06T10:55:46;1.10;;;1.00;;
19940;SDS011;10132;50.864;5.176;2023-08-06T10:57:49;3.37;;;1.00;;
19940;SDS011;10132;50.864;5.176;2023-08-06T10:59:51;4.43;;;0.90;;
19940;SDS011;10132;50.864;5.176;2023-08-06T11:01:55;4.50;;;0.90;;
19940;SDS011;10132;50.864;5.176;2023-08-06T11:04:02;3.40;;;0.80;;
19940;SDS011;10132;50.864;5.176;2023-08-06T11:06:07;3.40;;;0.90;;
19940;SDS011;10132;50.864;5.176;2023-08-06T11:08:12;2.97;;;0.63;;
19940;SDS011;10132;50.864;5.176;2023-08-06T11:10:25;5.27;;;0.70;;
19940;SDS011;10132;50.864;5.176;2023-08-06T11:12:29;3.00;;;1.00;;
19940;SDS011;10132;50.864;5.176;2023-08-06T11:14:32;1.33;;;0.60;;
19940;SDS011;10132;50.864;5.176;2023-08-06T11:16:38;3.73;;;0.83;;
19940;SDS011;10132;50.864;5.176;2023-08-06T11:18:43;6.27;;;0.83;;
19940;SDS011;10132;50.864;5.176;2023-08-06T11:21:02;3.10;;;0.90;;
19940;SDS011;10132;50.864;5.176;2023-08-06T11:23:04;4.73;;;0.80;;
19940;SDS011;10132;50.864;5.176;2023-08-06T11:25:10;4.67;;;0.90;;
19940;SDS011;10132;50.864;5.176;2023-08-06T11:27:15;4.07;;;0.90;;
19940;SDS011;10132;50.864;5.176;2023-08-06T11:29:18;3.90;;;0.83;;
19940;SDS011;10132;50.864;5.176;2023-08-06T11:31:23;1.17;;;0.40;;
19940;SDS011;10132;50.864;5.176;2023-08-06T11:33:30;1.87;;;0.60;;
19940;SDS011;10132;50.864;5.176;2023-08-06T11:35:33;1.43;;;0.70;;
19940;SDS011;10132;50.864;5.176;2023-08-06T11:37:40;1.37;;;0.60;;
19940;SDS011;10132;50.864;5.176;2023-08-06T11:39:46;2.60;;;0.60;;
19940;SDS011;10132;50.864;5.176;2023-08-06T11:41:54;3.03;;;0.90;;
19940;SDS011;10132;50.864;5.176;2023-08-06T11:44:01;4.47;;;0.80;;
19940;SDS011;10132;50.864;5.176;2023-08-06T11:46:11;2.13;;;0.90;;
19940;SDS011;10132;50.864;5.176;2023-08-06T11:48:15;2.93;;;1.10;;
19940;SDS011;10132;50.864;5.176;2023-08-06T11:50:22;3.07;;;1.00;;
19940;SDS011;10132;50.864;5.176;2023-08-06T11:52:30;3.47;;;1.00;;
19940;SDS011;10132;50.864;5.176;2023-08-06T11:54:36;2.40;;;1.00;;
19940;SDS011;10132;50.864;5.176;2023-08-06T11:56:37;3.47;;;0.73;;
19940;SDS011;10132;50.864;5.176;2023-08-06T11:58:41;3.53;;;1.00;;
19940;SDS011;10132;50.864;5.176;2023-08-06T12:00:43;3.03;;;0.73;;
19940;SDS011;10132;50.864;5.176;2023-08-06T12:02:48;3.77;;;1.10;;
19940;SDS011;10132;50.864;5.176;2023-08-06T12:05:01;3.80;;;1.13;;
19940;SDS011;10132;50.864;5.176;2023-08-06T12:07:06;3.93;;;0.97;;
19940;SDS011;10132;50.864;5.176;2023-08-06T12:09:10;3.57;;;1.00;;
19940;SDS011;10132;50.864;5.176;2023-08-06T12:11:15;3.10;;;0.90;;
19940;SDS011;10132;50.864;5.176;2023-08-06T12:13:21;3.10;;;1.00;;
19940;SDS011;10132;50.864;5.176;2023-08-06T12:15:23;2.13;;;0.80;;
19940;SDS011;10132;50.864;5.176;2023-08-06T12:17:27;1.67;;;0.90;;
19940;SDS011;10132;50.864;5.176;2023-08-06T12:19:31;3.33;;;1.20;;
19940;SDS011;10132;50.864;5.176;2023-08-06T12:21:41;3.50;;;1.27;;
19940;SDS011;10132;50.864;5.176;2023-08-06T12:23:44;2.87;;;1.10;;
19940;SDS011;10132;50.864;5.176;2023-08-06T12:25:47;1.97;;;1.50;;
19940;SDS011;10132;50.864;5.176;2023-08-06T12:27:56;2.60;;;1.10;;
19940;SDS011;10132;50.864;5.176;2023-08-06T12:29:59;6.50;;;1.77;;
19940;SDS011;10132;50.864;5.176;2023-08-06T12:32:04;3.37;;;1.13;;
19940;SDS011;10132;50.864;5.176;2023-08-06T12:34:08;7.17;;;1.20;;
19940;SDS011;10132;50.864;5.176;2023-08-06T12:36:11;5.77;;;1.30;;
19940;SDS011;10132;50.864;5.176;2023-08-06T12:38:13;3.13;;;0.93;;
19940;SDS011;10132;50.864;5.176;2023-08-06T12:40:18;1.97;;;0.97;;